createdAt,value
2018-07-26T00:07:49.410Z,24.71
2018-07-26T00:08:49.232Z,24.67
2018-07-26T00:09:49.181Z,24.68
2018-07-26T00:10:49.097Z,24.59
2018-07-26T00:11:49.095Z,24.64
2018-07-26T00:12:48.986Z,24.61
2018-07-26T00:13:48.899Z,24.59
2018-07-26T00:14:48.783Z,24.59
2018-07-26T00:15:48.811Z,24.60
2018-07-26T00:16:48.659Z,24.60
2018-07-26T00:17:48.619Z,24.60
2018-07-26T00:18:48.477Z,24.56
2018-07-26T00:19:48.425Z,24.52
2018-07-26T00:20:48.397Z,24.49
2018-07-26T00:21:48.336Z,24.45
2018-07-26T00:22:48.186Z,24.52
2018-07-26T00:23:48.140Z,24.56
2018-07-26T00:24:48.031Z,24.63
2018-07-26T00:25:49.016Z,24.66
2018-07-26T00:26:47.883Z,24.75
2018-07-26T00:27:47.865Z,24.77
2018-07-26T00:28:47.727Z,24.71
2018-07-26T00:31:29.658Z,24.80
2018-07-26T00:32:29.667Z,24.82
2018-07-26T00:33:29.497Z,24.79
2018-07-26T00:34:29.436Z,24.82
2018-07-26T00:35:29.427Z,24.79
2018-07-26T00:36:30.348Z,24.84
2018-07-26T00:37:29.194Z,24.80
2018-07-26T00:38:29.192Z,24.70
2018-07-26T00:39:29.055Z,24.75
2018-07-26T00:40:29.012Z,24.68
2018-07-26T00:41:28.917Z,24.70
2018-07-26T00:44:11.152Z,24.67
2018-07-26T00:45:32.070Z,24.67
2018-07-26T00:46:11.141Z,24.71
2018-07-26T00:47:10.955Z,24.59
2018-07-26T00:48:10.944Z,24.45
2018-07-26T00:49:10.773Z,24.45
2018-07-26T00:50:10.743Z,24.53
2018-07-26T00:51:10.622Z,24.48
2018-07-26T00:52:10.703Z,24.46
2018-07-26T00:53:10.499Z,24.42
2018-07-26T00:54:10.464Z,24.41
2018-07-26T00:55:10.329Z,24.45
2018-07-26T00:56:10.284Z,24.41
2018-07-26T00:57:10.178Z,24.37
2018-07-26T00:58:10.181Z,24.49
2018-07-26T00:59:10.044Z,24.36
2018-07-26T01:00:09.950Z,24.49
2018-07-26T01:01:09.872Z,24.46
2018-07-26T01:03:52.196Z,24.39
2018-07-26T01:04:52.218Z,24.33
2018-07-26T01:05:52.002Z,24.31
2018-07-26T01:06:52.013Z,24.26
2018-07-26T01:07:51.855Z,24.18
2018-07-26T01:08:51.865Z,24.09
2018-07-26T01:09:51.702Z,24.11
2018-07-26T01:10:51.734Z,24.09
2018-07-26T01:11:51.561Z,24.23
2018-07-26T01:12:51.537Z,24.33
2018-07-26T01:13:51.417Z,24.29
2018-07-26T01:14:51.352Z,24.21
2018-07-26T01:15:51.251Z,24.16
2018-07-26T01:16:51.262Z,24.18
2018-07-26T01:17:51.096Z,24.14
2018-07-26T01:18:51.096Z,24.26
2018-07-26T01:32:13.609Z,24.02
2018-07-26T01:33:13.439Z,24.12
2018-07-26T01:34:13.349Z,24.26
2018-07-26T01:35:13.253Z,24.37
2018-07-26T01:36:13.339Z,24.39
2018-07-26T01:37:13.102Z,24.41
2018-07-26T01:38:13.125Z,24.49
2018-07-26T01:39:13.099Z,24.52
2018-07-26T01:40:12.956Z,24.42
2018-07-26T01:41:12.799Z,24.39
2018-07-26T01:43:54.686Z,24.36
2018-07-26T01:44:54.644Z,24.24
2018-07-26T01:45:54.524Z,24.21
2018-07-26T01:46:54.528Z,24.19
2018-07-26T01:47:54.368Z,24.16
2018-07-26T01:48:54.349Z,24.12
2018-07-26T01:49:54.238Z,24.14
2018-07-26T01:50:54.289Z,24.00
2018-07-26T01:51:54.121Z,24.05
2018-07-26T01:52:54.057Z,23.96
2018-07-26T01:53:53.923Z,23.97
2018-07-26T01:54:53.859Z,24.12
2018-07-26T01:55:53.753Z,24.00
2018-07-26T01:56:54.842Z,23.97
2018-07-26T01:57:53.622Z,23.93
2018-07-26T01:58:53.585Z,23.93
2018-07-26T01:59:53.451Z,23.92
2018-07-26T02:00:53.497Z,23.97
2018-07-26T02:01:53.338Z,23.96
2018-07-26T02:02:53.306Z,23.96
2018-07-26T02:03:53.154Z,23.92
2018-07-26T02:06:35.242Z,23.79
2018-07-26T02:07:35.664Z,23.77
2018-07-26T02:08:35.068Z,23.77
2018-07-26T02:09:35.673Z,23.75
2018-07-26T02:10:34.887Z,23.62
2018-07-26T02:13:17.231Z,23.74
2018-07-26T02:14:17.125Z,23.77
2018-07-26T02:15:17.024Z,23.75
2018-07-26T02:16:17.087Z,23.75
2018-07-26T02:17:16.900Z,23.75
2018-07-26T02:18:16.840Z,23.75
2018-07-26T02:19:16.723Z,23.72
2018-07-26T02:20:16.709Z,23.69
2018-07-26T02:21:16.569Z,23.63
2018-07-26T02:22:16.572Z,23.62
2018-07-26T02:23:16.431Z,23.63
2018-07-26T02:24:16.379Z,23.63
2018-07-26T02:25:16.261Z,23.64
2018-07-26T02:26:17.255Z,23.60
2018-07-26T02:27:16.121Z,23.62
2018-07-26T02:28:17.154Z,23.60
2018-07-26T02:29:15.967Z,23.57
2018-07-26T02:30:16.002Z,23.56
2018-07-26T02:31:15.827Z,23.56
2018-07-26T02:32:15.816Z,23.56
2018-07-26T02:33:15.660Z,23.63
2018-07-26T02:34:15.640Z,23.59
2018-07-26T02:35:15.506Z,23.53
2018-07-26T02:36:15.580Z,23.47
2018-07-26T02:37:15.364Z,23.57
2018-07-26T02:38:15.343Z,23.57
2018-07-26T02:39:15.211Z,23.57
2018-07-26T02:40:15.162Z,23.56
2018-07-26T02:41:15.075Z,23.56
2018-07-26T02:42:15.098Z,23.53
2018-07-26T02:43:14.896Z,23.49
2018-07-26T02:44:14.871Z,23.56
2018-07-26T02:45:14.774Z,23.56
2018-07-26T02:46:14.785Z,23.47
2018-07-26T02:47:14.624Z,23.37
2018-07-26T02:48:14.587Z,23.45
2018-07-26T02:49:14.454Z,23.38
2018-07-26T02:50:14.401Z,23.37
2018-07-26T02:51:14.296Z,23.35
2018-07-26T02:52:14.351Z,23.56
2018-07-26T02:53:14.158Z,23.37
2018-07-26T02:54:14.117Z,23.34
2018-07-26T02:55:13.999Z,23.49
2018-07-26T02:57:56.316Z,23.26
2018-07-26T02:58:56.230Z,23.23
2018-07-26T02:59:56.051Z,23.21
2018-07-26T03:00:56.151Z,23.15
2018-07-26T03:01:55.909Z,23.11
2018-07-26T03:02:55.854Z,23.07
2018-07-26T03:03:55.729Z,23.01
2018-07-26T03:04:55.770Z,23.09
2018-07-26T03:05:55.577Z,23.07
2018-07-26T03:06:56.640Z,23.18
2018-07-26T03:07:55.441Z,23.19
2018-07-26T03:08:55.416Z,23.26
2018-07-26T03:09:55.279Z,23.22
2018-07-26T03:10:55.292Z,23.22
2018-07-26T03:11:55.126Z,23.22
2018-07-26T03:12:55.099Z,23.19
2018-07-26T03:13:54.967Z,23.25
2018-07-26T03:14:55.964Z,23.26
2018-07-26T03:15:54.813Z,23.34
2018-07-26T03:16:54.817Z,23.39
2018-07-26T03:17:54.680Z,23.38
2018-07-26T03:18:54.626Z,23.39
2018-07-26T03:19:54.556Z,23.42
2018-07-26T03:20:54.548Z,23.41
2018-07-26T03:21:54.407Z,23.38
2018-07-26T03:22:54.386Z,23.39
2018-07-26T03:23:54.213Z,23.41
2018-07-26T03:24:55.210Z,23.38
2018-07-26T03:25:54.060Z,23.38
2018-07-26T03:26:54.067Z,23.38
2018-07-26T03:27:53.903Z,23.31
2018-07-26T03:28:53.908Z,23.31
2018-07-26T03:29:53.749Z,23.37
2018-07-26T03:30:53.779Z,23.37
2018-07-26T03:31:53.592Z,23.32
2018-07-26T03:32:53.596Z,23.42
2018-07-26T03:33:53.477Z,23.38
2018-07-26T03:34:53.444Z,23.34
2018-07-26T03:35:53.296Z,23.39
2018-07-26T03:38:35.230Z,23.26
2018-07-26T03:39:35.242Z,23.22
2018-07-26T03:40:35.059Z,23.12
2018-07-26T03:41:35.015Z,23.09
2018-07-26T03:42:34.907Z,22.97
2018-07-26T03:43:34.957Z,22.99
2018-07-26T03:44:34.772Z,22.89
2018-07-26T04:08:16.789Z,23.01
2018-07-26T04:09:16.633Z,22.96
2018-07-26T04:10:16.568Z,22.94
2018-07-26T04:11:16.509Z,23.00
2018-07-26T04:13:58.774Z,22.93
2018-07-26T04:14:58.648Z,22.99
2018-07-26T04:15:58.559Z,23.04
2018-07-26T04:16:58.499Z,23.09
2018-07-26T04:17:58.408Z,23.07
2018-07-26T04:18:58.338Z,23.04
2018-07-26T04:19:58.263Z,23.07
2018-07-26T04:20:58.212Z,23.18
2018-07-26T04:21:58.122Z,23.22
2018-07-26T04:22:58.126Z,23.16
2018-07-26T04:23:57.956Z,23.11
2018-07-26T04:24:57.882Z,23.16
2018-07-26T04:25:57.825Z,23.16
2018-07-26T04:26:57.769Z,23.09
2018-07-26T04:27:57.658Z,23.04
2018-07-26T04:28:57.657Z,23.06
2018-07-26T04:29:57.492Z,23.16
2018-07-26T04:30:57.466Z,23.14
2018-07-26T04:31:57.398Z,23.15
2018-07-26T04:32:57.369Z,23.21
2018-07-26T04:33:57.191Z,23.19
2018-07-26T04:34:57.184Z,23.29
2018-07-26T04:35:57.056Z,23.23
2018-07-26T04:36:57.221Z,23.29
2018-07-26T04:37:56.890Z,23.31
2018-07-26T04:38:56.900Z,23.38
2018-07-26T04:42:20.365Z,23.54
2018-07-26T04:43:20.257Z,23.53
2018-07-26T04:44:20.196Z,23.52
2018-07-26T04:45:20.104Z,23.54
2018-07-26T04:46:20.071Z,23.59
2018-07-26T04:47:19.966Z,23.60
2018-07-26T04:48:19.895Z,23.53
2018-07-26T04:49:19.796Z,23.53
2018-07-26T04:52:01.728Z,23.59
2018-07-26T04:53:02.686Z,23.59
2018-07-26T04:54:01.583Z,23.63
2018-07-26T04:55:01.514Z,23.59
2018-07-26T04:56:01.424Z,23.57
2018-07-26T04:57:01.360Z,23.60
2018-07-26T04:58:01.283Z,23.60
2018-07-26T05:00:43.234Z,23.71
2018-07-26T05:01:43.158Z,23.79
2018-07-26T05:02:43.070Z,23.77
2018-07-26T05:03:43.056Z,23.79
2018-07-26T05:04:42.931Z,23.74
2018-07-26T05:05:42.847Z,23.78
2018-07-26T05:06:42.774Z,23.78
2018-07-26T05:07:42.702Z,23.68
2018-07-26T05:08:42.654Z,23.59
2018-07-26T05:09:42.568Z,23.60
2018-07-26T05:10:42.474Z,23.57
2018-07-26T05:11:42.415Z,23.37
2018-07-26T05:12:42.343Z,23.44
2018-07-26T05:13:42.273Z,23.53
2018-07-26T05:14:42.175Z,23.47
2018-07-26T05:15:42.100Z,23.47
2018-07-26T05:16:42.019Z,23.50
2018-07-26T05:17:41.940Z,23.49
2018-07-26T05:18:41.874Z,23.56
2018-07-26T05:19:41.803Z,23.62
2018-07-26T05:20:41.714Z,23.56
2018-07-26T05:21:41.641Z,23.56
2018-07-26T05:22:41.550Z,23.68
2018-07-26T05:25:23.752Z,23.86
2018-07-26T05:26:23.664Z,23.92
2018-07-26T05:27:23.634Z,23.94
2018-07-26T05:28:23.528Z,23.96
2018-07-26T05:29:23.442Z,23.90
2018-07-26T05:30:23.377Z,23.93
2018-07-26T05:31:23.281Z,24.05
2018-07-26T05:32:23.220Z,23.96
2018-07-26T05:33:23.142Z,23.96
2018-07-26T05:34:23.193Z,23.97
2018-07-26T05:35:22.977Z,23.97
2018-07-26T05:36:22.917Z,23.96
2018-07-26T05:37:22.837Z,24.00
2018-07-26T05:40:04.760Z,24.06
2018-07-26T05:41:04.679Z,24.11
2018-07-26T05:42:04.589Z,24.12
2018-07-26T05:43:04.589Z,24.18
2018-07-26T05:44:04.436Z,24.21
2018-07-26T05:45:05.388Z,24.33
2018-07-26T05:46:04.315Z,24.37
2018-07-26T05:47:04.238Z,24.34
2018-07-26T05:48:04.136Z,24.31
2018-07-26T05:49:04.071Z,24.26
2018-07-26T05:50:03.984Z,24.15
2018-07-26T05:51:03.951Z,24.23
2018-07-26T05:52:03.834Z,24.24
2018-07-26T05:53:03.767Z,24.19
2018-07-26T05:54:03.683Z,24.30
2018-07-26T05:55:03.651Z,24.26
2018-07-26T05:56:03.583Z,24.29
2018-07-26T05:57:03.463Z,24.41
2018-07-26T05:58:03.423Z,24.46
2018-07-26T06:00:45.254Z,24.59
2018-07-26T06:01:46.316Z,24.70
2018-07-26T06:02:45.119Z,24.82
2018-07-26T06:03:45.083Z,24.84
2018-07-26T06:04:44.981Z,24.94
2018-07-26T06:05:45.025Z,24.90
2018-07-26T06:06:44.830Z,24.90
2018-07-26T06:07:44.791Z,24.94
2018-07-26T06:08:44.657Z,24.86
2018-07-26T06:09:44.646Z,24.89
2018-07-26T06:10:44.504Z,24.67
2018-07-26T06:11:44.571Z,24.61
2018-07-26T06:12:44.349Z,24.61
2018-07-26T06:13:44.324Z,24.56
2018-07-26T06:14:44.227Z,24.55
2018-07-26T06:15:44.275Z,24.63
2018-07-26T06:16:44.073Z,24.83
2018-07-26T06:17:44.049Z,25.08
2018-07-26T06:18:43.908Z,25.05
2018-07-26T06:19:43.946Z,25.11
2018-07-26T06:20:43.798Z,25.29
2018-07-26T06:21:43.785Z,25.30
2018-07-26T06:22:43.586Z,25.27
2018-07-26T06:25:25.756Z,25.45
2018-07-26T06:26:25.797Z,25.51
2018-07-26T06:27:25.608Z,25.74
2018-07-26T06:28:25.546Z,25.74
2018-07-26T06:29:25.460Z,25.75
2018-07-26T06:30:25.384Z,25.59
2018-07-26T06:31:25.362Z,25.56
2018-07-26T06:32:31.355Z,25.49
2018-07-26T06:33:25.181Z,25.69
2018-07-26T06:34:25.201Z,25.63
2018-07-26T06:35:25.021Z,25.60
2018-07-26T06:36:25.023Z,25.76
2018-07-26T06:37:24.890Z,25.90
2018-07-26T06:38:24.836Z,25.61
2018-07-26T06:39:24.741Z,25.74
2018-07-26T06:40:24.743Z,25.53
2018-07-26T06:41:24.588Z,25.64
2018-07-26T06:42:24.595Z,25.83
2018-07-26T06:43:24.428Z,26.01
2018-07-26T06:44:24.457Z,25.89
2018-07-26T06:45:24.265Z,26.06
2018-07-26T06:46:24.278Z,26.13
2018-07-26T06:47:24.147Z,26.01
2018-07-26T06:48:24.171Z,26.32
2018-07-26T06:49:23.974Z,26.21
2018-07-26T06:52:06.293Z,26.66
2018-07-26T06:53:06.304Z,26.73
2018-07-26T06:54:06.156Z,26.97
2018-07-26T06:55:06.192Z,27.03
2018-07-26T06:56:06.037Z,27.16
2018-07-26T06:57:06.048Z,27.30
2018-07-26T06:58:05.827Z,27.34
2018-07-26T06:59:05.816Z,27.52
2018-07-26T07:00:05.674Z,27.65
2018-07-26T07:01:05.639Z,27.71
2018-07-26T07:02:05.566Z,27.90
2018-07-26T07:03:05.585Z,27.81
2018-07-26T07:04:05.383Z,27.96
2018-07-26T07:05:05.350Z,28.18
2018-07-26T07:06:05.309Z,28.32
2018-07-26T07:07:05.256Z,28.46
2018-07-26T07:08:05.117Z,28.46
2018-07-26T07:09:05.173Z,28.30
2018-07-26T07:10:04.956Z,28.48
2018-07-26T07:11:04.891Z,28.60
2018-07-26T07:12:04.803Z,28.77
2018-07-26T07:13:04.756Z,28.98
2018-07-26T07:14:04.657Z,29.11
2018-07-26T07:15:04.596Z,29.67
2018-07-26T07:16:04.512Z,29.79
2018-07-26T07:17:04.455Z,30.18
2018-07-26T07:18:04.391Z,30.29
2018-07-26T07:19:04.324Z,30.29
2018-07-26T07:20:04.237Z,30.64
2018-07-26T07:21:04.189Z,30.73
2018-07-26T07:22:04.099Z,30.79
2018-07-26T07:23:04.057Z,31.16
2018-07-26T07:24:03.959Z,31.65
2018-07-26T07:25:03.879Z,31.40
2018-07-26T07:26:03.850Z,31.27
2018-07-26T07:27:03.747Z,31.42
2018-07-26T07:28:03.662Z,31.01
2018-07-26T07:29:03.631Z,30.94
2018-07-26T07:30:03.522Z,30.94
2018-07-26T07:31:03.463Z,30.85
2018-07-26T07:32:03.399Z,30.94
2018-07-26T07:33:03.316Z,31.13
2018-07-26T07:34:03.278Z,32.03
2018-07-26T07:36:45.304Z,31.34
2018-07-26T07:37:45.229Z,31.50
2018-07-26T07:38:45.191Z,31.76
2018-07-26T07:39:45.089Z,31.72
2018-07-26T07:40:45.049Z,32.05
2018-07-26T07:41:44.957Z,32.29
2018-07-26T07:42:44.878Z,31.95
2018-07-26T07:43:44.839Z,31.82
2018-07-26T07:44:44.759Z,31.87
2018-07-26T07:45:44.685Z,32.02
2018-07-26T07:46:44.603Z,31.87
2018-07-26T07:47:44.610Z,31.30
2018-07-26T07:48:44.495Z,31.30
2018-07-26T07:49:44.414Z,31.62
2018-07-26T07:50:44.331Z,32.21
2018-07-26T07:51:44.265Z,32.99
2018-07-26T07:52:44.218Z,33.45
2018-07-26T07:53:44.159Z,33.14
2018-07-26T07:54:44.046Z,33.49
2018-07-26T07:55:43.991Z,34.40
2018-07-26T07:56:43.992Z,34.90
2018-07-26T07:57:43.857Z,35.15
2018-07-26T07:58:43.817Z,35.50
2018-07-26T07:59:43.800Z,36.05
2018-07-26T08:00:43.647Z,36.27
2018-07-26T08:01:43.589Z,36.46
2018-07-26T08:02:43.542Z,36.86
2018-07-26T08:05:25.928Z,36.34
2018-07-26T08:06:25.757Z,36.52
2018-07-26T08:07:25.713Z,36.75
2018-07-26T08:08:25.611Z,36.68
2018-07-26T08:09:25.538Z,36.79
2018-07-26T08:10:25.585Z,37.04
2018-07-26T08:11:25.408Z,37.35
2018-07-26T08:14:07.328Z,37.85
2018-07-26T08:15:08.343Z,37.99
2018-07-26T08:16:07.186Z,38.03
2018-07-26T08:17:07.119Z,37.84
2018-07-26T08:18:07.075Z,37.43
2018-07-26T08:19:06.994Z,37.85
2018-07-26T08:20:06.997Z,38.41
2018-07-26T08:22:48.823Z,38.00
2018-07-26T08:23:48.757Z,37.81
2018-07-26T08:24:48.689Z,38.00
2018-07-26T08:25:48.639Z,38.62
2018-07-26T08:26:48.575Z,38.26
2018-07-26T08:27:48.495Z,38.40
2018-07-26T08:28:48.418Z,38.53
2018-07-26T08:29:48.373Z,38.65
2018-07-26T08:30:48.443Z,38.58
2018-07-26T08:31:48.243Z,38.58
2018-07-26T08:32:48.182Z,38.55
2018-07-26T08:33:48.129Z,38.47
2018-07-26T08:34:48.057Z,38.16
2018-07-26T08:35:48.009Z,38.38
2018-07-26T08:36:47.927Z,38.45
2018-07-26T08:37:47.948Z,38.75
2018-07-26T08:38:47.798Z,38.86
2018-07-26T08:41:30.041Z,37.70
2018-07-26T08:44:11.834Z,36.82
2018-07-26T08:45:11.786Z,36.48
2018-07-26T08:46:11.709Z,35.93
2018-07-26T08:47:11.633Z,36.02
2018-07-26T08:48:11.582Z,36.90
2018-07-26T08:49:11.560Z,37.68
2018-07-26T08:52:54.858Z,39.46
2018-07-26T08:53:54.752Z,39.28
2018-07-26T08:54:54.725Z,39.20
2018-07-26T08:55:54.636Z,39.13
2018-07-26T08:56:54.645Z,39.05
2018-07-26T08:57:54.518Z,38.79
2018-07-26T08:58:54.498Z,39.14
2018-07-26T08:59:54.390Z,39.20
2018-07-26T09:00:54.335Z,38.89
2018-07-26T09:01:54.408Z,39.02
2018-07-26T09:02:54.206Z,38.72
2018-07-26T09:03:54.153Z,39.24
2018-07-26T09:04:54.096Z,39.36
2018-07-26T09:05:54.021Z,39.46
2018-07-26T09:06:53.987Z,39.35
2018-07-26T09:07:53.905Z,39.12
2018-07-26T09:08:53.871Z,39.29
2018-07-26T09:09:53.812Z,39.46
2018-07-26T09:10:53.817Z,38.44
2018-07-26T09:11:53.653Z,38.30
2018-07-26T09:12:53.617Z,38.70
2018-07-26T09:13:53.584Z,38.49
2018-07-26T09:16:35.821Z,39.50
2018-07-26T09:17:36.801Z,39.48
2018-07-26T09:18:35.711Z,39.68
2018-07-26T09:19:35.702Z,38.30
2018-07-26T09:22:23.357Z,37.05
2018-07-26T09:23:23.284Z,37.59
2018-07-26T09:24:23.247Z,37.72
2018-07-26T09:25:23.192Z,37.65
2018-07-26T09:26:23.191Z,38.16
2018-07-26T09:27:23.049Z,38.79
2018-07-26T09:28:22.952Z,39.39
2018-07-26T09:29:22.905Z,39.31
2018-07-26T09:30:22.855Z,39.53
2018-07-26T09:31:22.787Z,39.44
2018-07-26T09:32:22.721Z,39.88
2018-07-26T09:35:04.877Z,40.10
2018-07-26T09:36:04.784Z,40.22
2018-07-26T09:37:04.703Z,40.66
2018-07-26T09:38:04.642Z,39.94
2018-07-26T09:39:04.604Z,40.00
2018-07-26T09:40:04.571Z,39.44
2018-07-26T09:41:04.507Z,39.87
2018-07-26T09:43:46.378Z,40.00
2018-07-26T09:45:07.275Z,40.11
2018-07-26T09:45:46.292Z,40.49
2018-07-26T09:46:46.165Z,40.49
2018-07-26T09:47:46.082Z,40.97
2018-07-26T09:48:46.046Z,41.28
2018-07-26T09:49:45.995Z,41.00
2018-07-26T09:50:46.927Z,40.09
2018-07-26T09:51:45.862Z,40.39
2018-07-26T09:52:45.805Z,40.85
2018-07-26T09:53:45.752Z,40.72
2018-07-26T09:54:46.697Z,40.58
2018-07-26T09:55:45.672Z,40.24
2018-07-26T09:56:45.559Z,40.24
2018-07-26T09:57:45.498Z,40.45
2018-07-26T09:58:45.452Z,40.83
2018-07-26T09:59:45.399Z,41.29
2018-07-26T10:00:45.370Z,41.13
2018-07-26T10:01:45.273Z,40.75
2018-07-26T10:02:45.217Z,40.95
2018-07-26T10:03:45.177Z,40.82
2018-07-26T10:04:46.112Z,40.11
2018-07-26T10:05:45.031Z,40.11
2018-07-26T10:06:44.988Z,40.38
2018-07-26T10:07:44.916Z,40.09
2018-07-26T10:08:44.869Z,39.17
2018-07-26T10:09:44.804Z,39.43
2018-07-26T10:10:46.788Z,39.06
2018-07-26T10:11:44.771Z,39.17
2018-07-26T10:12:44.620Z,39.48
2018-07-26T10:13:44.572Z,39.27
2018-07-26T10:14:44.514Z,39.51
2018-07-26T10:15:44.473Z,39.46
2018-07-26T10:18:26.360Z,39.61
2018-07-26T10:19:27.414Z,39.87
2018-07-26T10:20:26.244Z,38.79
2018-07-26T10:21:26.160Z,38.22
2018-07-26T10:22:26.109Z,38.15
2018-07-26T10:23:26.064Z,38.16
2018-07-26T10:24:26.027Z,38.33
2018-07-26T10:25:25.966Z,38.81
2018-07-26T10:26:25.875Z,39.47
2018-07-26T10:27:26.844Z,40.13
2018-07-26T10:28:25.751Z,40.42
2018-07-26T10:29:25.735Z,40.48
2018-07-26T10:30:25.655Z,40.19
2018-07-26T10:31:26.617Z,40.00
2018-07-26T10:32:25.521Z,40.00
2018-07-26T10:33:25.464Z,40.33
2018-07-26T10:34:25.406Z,40.64
2018-07-26T10:35:25.351Z,40.90
2018-07-26T10:36:25.304Z,41.23
2018-07-26T10:39:07.346Z,39.91
2018-07-26T10:40:07.295Z,40.02
2018-07-26T10:41:07.264Z,40.22
2018-07-26T10:43:49.356Z,39.56
2018-07-26T10:46:31.365Z,40.98
2018-07-26T10:47:32.326Z,41.05
2018-07-26T10:48:31.259Z,39.69
2018-07-26T10:49:31.192Z,39.63
2018-07-26T10:50:31.120Z,39.94
2018-07-26T10:53:13.618Z,40.76
2018-07-26T10:54:14.321Z,41.25
2018-07-26T10:55:13.236Z,39.96
2018-07-26T10:56:13.199Z,40.00
2018-07-26T10:57:13.123Z,38.90
2018-07-26T10:58:13.092Z,39.05
2018-07-26T10:59:13.007Z,38.87
2018-07-26T11:00:12.965Z,38.00
2018-07-26T11:01:12.888Z,37.31
2018-07-26T11:02:12.847Z,37.39
2018-07-26T11:03:12.764Z,38.07
2018-07-26T11:04:12.740Z,38.97
2018-07-26T11:05:12.645Z,39.94
2018-07-26T11:06:12.610Z,40.51
2018-07-26T11:07:12.561Z,41.10
2018-07-26T11:08:12.488Z,41.51
2018-07-26T11:09:12.428Z,41.63
2018-07-26T11:10:12.365Z,41.69
2018-07-26T11:11:12.297Z,41.47
2018-07-26T11:12:13.291Z,41.29
2018-07-26T11:13:12.258Z,41.12
2018-07-26T11:14:12.140Z,40.41
2018-07-26T11:15:12.063Z,40.51
2018-07-26T11:16:12.006Z,38.10
2018-07-26T11:17:11.953Z,37.45
2018-07-26T11:18:11.927Z,37.88
2018-07-26T11:19:11.856Z,37.34
2018-07-26T11:20:11.783Z,37.84
2018-07-26T11:21:11.709Z,38.18
2018-07-26T11:22:11.682Z,39.01
2018-07-26T11:23:11.601Z,39.10
2018-07-26T11:24:11.631Z,39.48
2018-07-26T11:25:11.486Z,40.07
2018-07-26T11:26:11.430Z,40.44
2018-07-26T11:27:11.422Z,40.71
2018-07-26T11:28:11.350Z,39.92
2018-07-26T11:29:11.275Z,40.03
2018-07-26T11:30:11.186Z,39.50
2018-07-26T11:31:11.130Z,39.07
2018-07-26T11:32:11.085Z,39.43
2018-07-26T11:33:11.040Z,39.54
2018-07-26T11:34:10.971Z,39.78
2018-07-26T11:35:10.899Z,40.29
2018-07-26T11:36:10.846Z,40.22
2018-07-26T11:37:10.812Z,40.29
2018-07-26T11:38:10.719Z,40.57
2018-07-26T11:39:10.701Z,40.72
2018-07-26T11:40:10.610Z,40.72
2018-07-26T11:41:10.567Z,41.00
2018-07-26T11:42:10.483Z,41.26
2018-07-26T11:43:10.430Z,40.36
2018-07-26T11:44:11.472Z,39.12
2018-07-26T11:45:10.316Z,39.43
2018-07-26T11:46:10.287Z,39.69
2018-07-26T11:47:10.210Z,40.07
2018-07-26T11:48:10.153Z,40.42
2018-07-26T11:49:10.098Z,40.67
2018-07-26T11:50:10.076Z,40.71
2018-07-26T11:51:09.975Z,40.16
2018-07-26T11:52:09.917Z,39.47
2018-07-26T11:53:09.874Z,39.48
2018-07-26T11:54:10.826Z,39.17
2018-07-26T11:55:09.773Z,39.29
2018-07-26T11:56:09.684Z,38.50
2018-07-26T11:57:09.613Z,38.55
2018-07-26T11:59:51.965Z,39.68
2018-07-26T12:00:51.826Z,39.78
2018-07-26T12:01:51.773Z,39.48
2018-07-26T12:02:51.699Z,39.99
2018-07-26T12:03:51.652Z,40.28
2018-07-26T12:04:51.588Z,40.67
2018-07-26T12:05:51.527Z,40.15
2018-07-26T12:06:51.454Z,40.16
2018-07-26T12:07:51.394Z,39.51
2018-07-26T12:10:33.392Z,38.22
2018-07-26T12:11:33.310Z,38.33
2018-07-26T12:12:33.250Z,38.50
2018-07-26T12:13:33.183Z,37.73
2018-07-26T12:14:33.134Z,38.03
2018-07-26T12:15:34.094Z,38.40
2018-07-26T12:16:32.995Z,38.47
2018-07-26T12:17:32.968Z,38.31
2018-07-26T12:18:32.877Z,37.81
2018-07-26T12:21:15.001Z,38.28
2018-07-26T12:22:14.814Z,38.12
2018-07-26T12:23:14.744Z,37.81
2018-07-26T12:25:56.875Z,37.40
2018-07-26T12:26:57.880Z,37.45
2018-07-26T12:27:56.742Z,36.79
2018-07-26T12:30:38.890Z,36.99
2018-07-26T12:31:38.834Z,37.13
2018-07-26T12:32:38.737Z,37.31
2018-07-26T12:33:38.676Z,36.90
2018-07-26T12:34:38.605Z,36.60
2018-07-26T12:35:38.563Z,36.84
2018-07-26T12:36:38.501Z,36.93
2018-07-26T12:37:38.424Z,36.94
2018-07-26T12:38:38.354Z,37.11
2018-07-26T12:39:38.342Z,37.38
2018-07-26T12:40:38.230Z,37.21
2018-07-26T12:41:38.210Z,37.47
2018-07-26T12:42:38.109Z,37.81
2018-07-26T12:43:38.075Z,38.02
2018-07-26T12:44:37.972Z,38.10
2018-07-26T12:47:19.994Z,38.70
2018-07-26T12:50:01.879Z,38.93
2018-07-26T12:51:01.826Z,38.75
2018-07-26T12:52:01.751Z,38.24
2018-07-26T12:53:01.700Z,38.21
2018-07-26T12:54:01.618Z,37.84
2018-07-26T12:55:01.569Z,37.81
2018-07-26T12:56:01.499Z,37.73
2018-07-26T12:57:01.439Z,37.84
2018-07-26T12:58:01.380Z,37.81
2018-07-26T12:59:03.316Z,37.81
2018-07-26T13:00:01.240Z,37.43
2018-07-26T13:01:01.219Z,37.47
2018-07-26T13:02:01.093Z,37.68
2018-07-26T13:03:03.054Z,37.59
2018-07-26T13:04:00.984Z,37.65
2018-07-26T13:06:42.901Z,37.35
2018-07-26T13:07:44.901Z,37.23
2018-07-26T13:08:42.771Z,36.90
2018-07-26T13:11:24.888Z,36.97
2018-07-26T13:12:24.878Z,37.24
2018-07-26T13:13:24.771Z,37.40
2018-07-26T13:14:24.702Z,37.50
2018-07-26T13:15:24.642Z,37.47
2018-07-26T13:18:06.887Z,37.21
2018-07-26T13:19:07.855Z,36.75
2018-07-26T13:20:06.766Z,36.46
2018-07-26T13:21:06.704Z,36.31
2018-07-26T13:22:06.644Z,36.33
2018-07-26T13:24:48.918Z,36.33
2018-07-26T13:27:30.909Z,36.06
2018-07-26T13:28:31.868Z,36.13
2018-07-26T13:29:30.908Z,36.02
2018-07-26T13:30:30.787Z,36.11
2018-07-26T13:31:30.627Z,36.06
2018-07-26T13:34:12.920Z,35.99
2018-07-26T13:36:54.896Z,35.71
2018-07-26T13:37:54.843Z,35.59
2018-07-26T13:38:54.765Z,35.89
2018-07-26T13:39:54.781Z,35.99
2018-07-26T13:40:54.644Z,35.89
2018-07-26T13:41:54.565Z,35.96
2018-07-26T13:42:54.489Z,35.99
2018-07-26T13:43:54.433Z,36.03
2018-07-26T13:44:54.386Z,36.21
2018-07-26T13:47:36.399Z,36.13
2018-07-26T13:48:36.350Z,36.27
2018-07-26T13:49:36.279Z,36.31
2018-07-26T13:50:36.215Z,36.16
2018-07-26T13:51:36.137Z,36.06
2018-07-26T13:54:18.438Z,35.83
2018-07-26T13:55:18.377Z,35.91
2018-07-26T13:56:18.284Z,36.02
2018-07-26T13:57:18.209Z,36.15
2018-07-26T13:58:18.165Z,36.06
2018-07-26T13:59:18.070Z,36.16
2018-07-26T14:00:18.019Z,36.18
2018-07-26T14:01:17.938Z,36.12
2018-07-26T14:02:17.866Z,36.02
2018-07-26T14:03:17.804Z,36.03
2018-07-26T14:04:17.738Z,36.12
2018-07-26T14:05:18.688Z,36.05
2018-07-26T14:06:17.592Z,36.11
2018-07-26T14:07:17.540Z,36.16
2018-07-26T14:08:17.469Z,36.13
2018-07-26T14:09:17.412Z,36.34
2018-07-26T14:10:17.355Z,36.56
2018-07-26T14:11:17.280Z,36.57
2018-07-26T14:12:17.196Z,36.52
2018-07-26T14:13:17.141Z,36.64
2018-07-26T14:14:17.062Z,36.64
2018-07-26T14:15:17.125Z,36.68
2018-07-26T14:16:16.930Z,36.59
2018-07-26T14:17:16.864Z,36.44
2018-07-26T14:18:16.807Z,36.23
2018-07-26T14:19:16.751Z,36.22
2018-07-26T14:20:16.709Z,36.21
2018-07-26T14:21:17.627Z,36.00
2018-07-26T14:22:16.536Z,36.08
2018-07-26T14:23:16.469Z,36.11
2018-07-26T14:24:16.424Z,35.91
2018-07-26T14:25:16.337Z,35.87
2018-07-26T14:26:16.292Z,35.61
2018-07-26T14:27:16.232Z,35.59
2018-07-26T14:28:16.164Z,35.64
2018-07-26T14:29:16.096Z,35.62
2018-07-26T14:30:16.003Z,35.61
2018-07-26T14:31:15.972Z,35.61
2018-07-26T14:32:15.853Z,35.49
2018-07-26T14:34:57.916Z,35.46
2018-07-26T14:35:57.911Z,35.40
2018-07-26T14:36:57.789Z,35.39
2018-07-26T14:39:39.939Z,35.28
2018-07-26T14:40:39.862Z,35.25
2018-07-26T14:41:39.869Z,35.24
2018-07-26T14:42:39.749Z,35.34
2018-07-26T14:43:39.722Z,35.18
2018-07-26T14:44:39.590Z,35.22
2018-07-26T14:45:39.521Z,35.24
2018-07-26T14:46:40.481Z,35.20
2018-07-26T14:47:39.400Z,35.22
2018-07-26T14:48:39.319Z,35.21
2018-07-26T14:49:39.248Z,35.24
2018-07-26T14:52:21.480Z,35.24
2018-07-26T14:53:21.369Z,35.18
2018-07-26T14:54:21.305Z,35.17
2018-07-26T14:55:21.234Z,35.13
2018-07-26T14:56:21.159Z,35.18
2018-07-26T14:57:21.132Z,35.12
2018-07-26T14:58:21.083Z,35.10
2018-07-26T14:59:20.958Z,35.09
2018-07-26T15:00:20.884Z,34.99
2018-07-26T15:01:20.833Z,35.02
2018-07-26T15:02:20.775Z,35.03
2018-07-26T15:03:20.702Z,34.95
2018-07-26T15:04:20.611Z,34.99